sensor_id;sensor_type;location;lat;lon;timestamp;noise_LAeq;noise_LA_min;noise_LA_max;noise_LA01;noise_LA95
37223;Laerm;28026;48.562;14.440;2023-04-03T00:00:34;37.28;31.68;48.61;;
37223;Laerm;28026;48.562;14.440;2023-04-03T00:03:05;37.17;31.68;40.62;;
37223;Laerm;28026;48.562;14.440;2023-04-03T00:05:36;37.39;29.92;49.92;;
37223;Laerm;28026;48.562;14.440;2023-04-03T00:08:07;40.21;32.93;65.56;;
37223;Laerm;28026;48.562;14.440;2023-04-03T00:10:40;38.16;31.68;60.54;;
37223;Laerm;28026;48.562;14.440;2023-04-03T00:13:12;37.35;31.68;41.75;;
37223;Laerm;28026;48.562;14.440;2023-04-03T00:15:43;37.51;32.00;41.82;;
37223;Laerm;28026;48.562;14.440;2023-04-03T00:18:14;37.65;30.89;41.06;;
37223;Laerm;28026;48.562;14.440;2023-04-03T00:20:47;40.10;32.35;55.60;;
37223;Laerm;28026;48.562;14.440;2023-04-03T00:23:18;41.44;33.44;49.29;;
37223;Laerm;28026;48.562;14.440;2023-04-03T00:25:50;37.34;29.92;41.46;;
37223;Laerm;28026;48.562;14.440;2023-04-03T00:28:22;37.72;32.35;48.76;;
37223;Laerm;28026;48.562;14.440;2023-04-03T00:30:53;38.27;32.35;58.94;;
37223;Laerm;28026;48.562;14.440;2023-04-03T00:33:24;37.16;30.89;41.06;;
37223;Laerm;28026;48.562;14.440;2023-04-03T00:35:55;37.10;32.35;40.53;;
37223;Laerm;28026;48.562;14.440;2023-04-03T00:38:26;41.23;33.44;60.25;;
37223;Laerm;28026;48.562;14.440;2023-04-03T00:40:57;37.57;29.92;41.38;;
37223;Laerm;28026;48.562;14.440;2023-04-03T00:43:28;38.41;31.68;43.58;;
37223;Laerm;28026;48.562;14.440;2023-04-03T00:46:00;37.20;31.68;40.53;;
37223;Laerm;28026;48.562;14.440;2023-04-03T00:48:43;37.44;29.92;50.16;;
37223;Laerm;28026;48.562;14.440;2023-04-03T00:51:25;37.14;31.68;41.75;;
37223;Laerm;28026;48.562;14.440;2023-04-03T00:54:03;37.17;29.92;43.24;;
37223;Laerm;28026;48.562;14.440;2023-04-03T00:56:37;37.49;31.68;53.29;;
37223;Laerm;28026;48.562;14.440;2023-04-03T00:59:17;38.96;32.93;45.54;;
37223;Laerm;28026;48.562;14.440;2023-04-03T01:01:56;37.20;31.68;40.13;;
37223;Laerm;28026;48.562;14.440;2023-04-03T01:04:37;37.19;30.89;44.62;;
37223;Laerm;28026;48.562;14.440;2023-04-03T01:07:26;37.62;32.35;51.27;;
37223;Laerm;28026;48.562;14.440;2023-04-03T01:10:08;37.87;31.68;52.36;;
37223;Laerm;28026;48.562;14.440;2023-04-03T01:12:45;37.18;31.68;40.71;;
37223;Laerm;28026;48.562;14.440;2023-04-03T01:15:24;37.26;32.35;41.30;;
37223;Laerm;28026;48.562;14.440;2023-04-03T01:17:58;37.25;31.68;40.33;;
37223;Laerm;28026;48.562;14.440;2023-04-03T01:25:55;37.21;30.54;41.22;;
37223;Laerm;28026;48.562;14.440;2023-04-03T01:28:35;37.28;32.35;41.38;;
37223;Laerm;28026;48.562;14.440;2023-04-03T01:34:13;37.49;30.89;40.62;;
37223;Laerm;28026;48.562;14.440;2023-04-03T01:36:44;37.86;31.68;58.51;;
37223;Laerm;28026;48.562;14.440;2023-04-03T01:39:15;38.49;33.44;45.42;;
37223;Laerm;28026;48.562;14.440;2023-04-03T01:41:47;39.69;33.44;43.34;;
37223;Laerm;28026;48.562;14.440;2023-04-03T01:44:18;37.78;32.93;42.82;;
37223;Laerm;28026;48.562;14.440;2023-04-03T01:46:49;37.37;30.89;52.19;;
37223;Laerm;28026;48.562;14.440;2023-04-03T01:49:20;37.55;32.35;47.72;;
37223;Laerm;28026;48.562;14.440;2023-04-03T01:51:51;37.86;32.93;46.05;;
37223;Laerm;28026;48.562;14.440;2023-04-03T01:54:21;38.83;34.69;42.71;;
37223;Laerm;28026;48.562;14.440;2023-04-03T01:56:52;38.21;33.44;43.04;;
37223;Laerm;28026;48.562;14.440;2023-04-03T01:59:23;37.88;31.68;42.53;;
37223;Laerm;28026;48.562;14.440;2023-04-03T02:01:54;37.33;32.35;42.59;;
37223;Laerm;28026;48.562;14.440;2023-04-03T02:04:25;37.39;32.35;41.82;;
37223;Laerm;28026;48.562;14.440;2023-04-03T02:06:56;37.58;31.68;40.80;;
37223;Laerm;28026;48.562;14.440;2023-04-03T02:09:27;38.11;32.93;44.19;;
37223;Laerm;28026;48.562;14.440;2023-04-03T02:11:58;38.77;32.93;60.46;;
37223;Laerm;28026;48.562;14.440;2023-04-03T02:14:29;37.49;31.68;40.62;;
37223;Laerm;28026;48.562;14.440;2023-04-03T02:17:02;37.61;32.35;44.54;;
37223;Laerm;28026;48.562;14.440;2023-04-03T02:19:39;37.55;32.35;43.54;;
37223;Laerm;28026;48.562;14.440;2023-04-03T02:22:10;41.08;33.44;46.66;;
37223;Laerm;28026;48.562;14.440;2023-04-03T02:24:41;41.68;33.44;61.36;;
37223;Laerm;28026;48.562;14.440;2023-04-03T02:27:12;38.87;33.44;47.46;;
37223;Laerm;28026;48.562;14.440;2023-04-03T02:29:43;39.89;33.90;49.91;;
37223;Laerm;28026;48.562;14.440;2023-04-03T02:32:14;41.87;32.35;53.71;;
37223;Laerm;28026;48.562;14.440;2023-04-03T02:34:45;38.67;32.93;43.64;;
37223;Laerm;28026;48.562;14.440;2023-04-03T02:37:15;37.70;32.00;45.63;;
37223;Laerm;28026;48.562;14.440;2023-04-03T02:39:47;37.80;32.35;48.28;;
37223;Laerm;28026;48.562;14.440;2023-04-03T02:42:17;37.70;32.93;43.58;;
37223;Laerm;28026;48.562;14.440;2023-04-03T02:44:48;37.88;31.68;49.32;;
37223;Laerm;28026;48.562;14.440;2023-04-03T02:47:19;38.67;32.35;45.17;;
37223;Laerm;28026;48.562;14.440;2023-04-03T02:49:50;39.20;32.93;48.02;;
37223;Laerm;28026;48.562;14.440;2023-04-03T02:52:23;44.04;35.04;64.37;;
37223;Laerm;28026;48.562;14.440;2023-04-03T02:54:54;40.47;32.93;51.62;;
37223;Laerm;28026;48.562;14.440;2023-04-03T02:57:25;39.28;32.93;51.52;;
37223;Laerm;28026;48.562;14.440;2023-04-03T02:59:55;38.53;33.44;42.03;;
37223;Laerm;28026;48.562;14.440;2023-04-03T03:02:26;40.01;34.69;44.62;;
37223;Laerm;28026;48.562;14.440;2023-04-03T03:04:57;38.20;32.93;42.53;;
37223;Laerm;28026;48.562;14.440;2023-04-03T03:07:28;39.18;33.90;44.51;;
37223;Laerm;28026;48.562;14.440;2023-04-03T03:09:59;40.81;33.44;45.72;;
37223;Laerm;28026;48.562;14.440;2023-04-03T03:12:30;39.68;31.68;49.74;;
37223;Laerm;28026;48.562;14.440;2023-04-03T03:15:01;38.33;33.44;49.64;;
37223;Laerm;28026;48.562;14.440;2023-04-03T03:17:32;41.24;32.93;55.35;;
37223;Laerm;28026;48.562;14.440;2023-04-03T03:20:05;38.01;33.44;42.22;;
37223;Laerm;28026;48.562;14.440;2023-04-03T03:22:36;41.73;33.44;60.84;;
37223;Laerm;28026;48.562;14.440;2023-04-03T03:25:08;38.86;33.44;50.42;;
37223;Laerm;28026;48.562;14.440;2023-04-03T03:27:40;38.11;33.44;43.09;;
37223;Laerm;28026;48.562;14.440;2023-04-03T03:30:11;39.10;33.90;44.69;;
37223;Laerm;28026;48.562;14.440;2023-04-03T03:32:42;39.70;35.04;43.81;;
37223;Laerm;28026;48.562;14.440;2023-04-03T03:35:13;40.52;35.36;45.20;;
37223;Laerm;28026;48.562;14.440;2023-04-03T03:37:44;40.40;32.35;63.31;;
37223;Laerm;28026;48.562;14.440;2023-04-03T03:40:15;38.60;33.44;42.35;;
37223;Laerm;28026;48.562;14.440;2023-04-03T03:42:46;41.40;35.04;56.82;;
37223;Laerm;28026;48.562;14.440;2023-04-03T03:45:17;38.92;33.90;43.34;;
37223;Laerm;28026;48.562;14.440;2023-04-03T03:47:48;43.05;36.20;50.81;;
37223;Laerm;28026;48.562;14.440;2023-04-03T03:50:19;42.45;35.36;53.51;;
37223;Laerm;28026;48.562;14.440;2023-04-03T03:52:49;39.25;33.90;49.11;;
37223;Laerm;28026;48.562;14.440;2023-04-03T03:55:21;41.06;32.93;57.84;;
37223;Laerm;28026;48.562;14.440;2023-04-03T03:57:52;37.60;33.44;41.68;;
37223;Laerm;28026;48.562;14.440;2023-04-03T04:00:23;38.42;32.93;42.76;;
37223;Laerm;28026;48.562;14.440;2023-04-03T04:02:54;38.24;32.35;50.24;;
37223;Laerm;28026;48.562;14.440;2023-04-03T04:05:26;42.49;33.44;55.25;;
37223;Laerm;28026;48.562;14.440;2023-04-03T04:07:57;39.98;33.97;45.69;;
37223;Laerm;28026;48.562;14.440;2023-04-03T04:10:28;40.42;33.90;45.93;;
37223;Laerm;28026;48.562;14.440;2023-04-03T04:12:59;40.18;35.66;48.66;;
37223;Laerm;28026;48.562;14.440;2023-04-03T04:15:30;41.39;35.36;49.75;;
37223;Laerm;28026;48.562;14.440;2023-04-03T04:18:01;43.03;35.94;57.93;;
37223;Laerm;28026;48.562;14.440;2023-04-03T04:20:32;43.27;35.66;59.63;;
37223;Laerm;28026;48.562;14.440;2023-04-03T04:23:03;41.02;34.69;55.89;;
37223;Laerm;28026;48.562;14.440;2023-04-03T04:25:34;42.58;36.34;51.75;;
37223;Laerm;28026;48.562;14.440;2023-04-03T04:28:06;40.78;35.04;58.04;;
37223;Laerm;28026;48.562;14.440;2023-04-03T04:30:37;40.90;34.31;49.63;;
37223;Laerm;28026;48.562;14.440;2023-04-03T04:33:08;40.76;34.69;57.10;;
37223;Laerm;28026;48.562;14.440;2023-04-03T04:35:42;39.44;33.90;45.45;;
37223;Laerm;28026;48.562;14.440;2023-04-03T04:38:14;40.54;35.04;48.25;;
37223;Laerm;28026;48.562;14.440;2023-04-03T04:40:44;38.71;35.04;45.89;;
37223;Laerm;28026;48.562;14.440;2023-04-03T04:43:16;41.92;35.01;54.04;;
37223;Laerm;28026;48.562;14.440;2023-04-03T04:45:47;42.78;37.70;54.51;;
37223;Laerm;28026;48.562;14.440;2023-04-03T04:48:18;41.09;35.66;56.61;;
37223;Laerm;28026;48.562;14.440;2023-04-03T04:50:49;42.46;34.69;52.66;;
37223;Laerm;28026;48.562;14.440;2023-04-03T04:53:20;40.48;35.66;50.25;;
37223;Laerm;28026;48.562;14.440;2023-04-03T04:55:52;42.37;35.94;68.01;;
37223;Laerm;28026;48.562;14.440;2023-04-03T04:58:23;42.30;36.20;53.25;;
37223;Laerm;28026;48.562;14.440;2023-04-03T05:01:10;40.49;35.04;51.16;;
37223;Laerm;28026;48.562;14.440;2023-04-03T05:03:41;41.26;36.91;52.09;;
37223;Laerm;28026;48.562;14.440;2023-04-03T05:06:12;40.38;35.66;51.69;;
37223;Laerm;28026;48.562;14.440;2023-04-03T05:08:43;40.07;36.69;48.40;;
37223;Laerm;28026;48.562;14.440;2023-04-03T05:11:14;40.25;36.20;50.81;;
37223;Laerm;28026;48.562;14.440;2023-04-03T05:13:45;39.96;36.45;57.02;;
37223;Laerm;28026;48.562;14.440;2023-04-03T05:16:16;40.22;36.45;50.85;;
37223;Laerm;28026;48.562;14.440;2023-04-03T05:18:47;40.91;36.91;49.53;;
37223;Laerm;28026;48.562;14.440;2023-04-03T05:21:18;42.01;35.94;56.56;;
37223;Laerm;28026;48.562;14.440;2023-04-03T05:23:49;41.88;36.91;48.40;;
37223;Laerm;28026;48.562;14.440;2023-04-03T05:26:19;49.77;39.34;56.59;;
37223;Laerm;28026;48.562;14.440;2023-04-03T05:28:52;41.41;36.69;52.30;;
37223;Laerm;28026;48.562;14.440;2023-04-03T05:31:23;39.24;36.20;45.07;;
37223;Laerm;28026;48.562;14.440;2023-04-03T05:33:54;39.08;35.04;47.84;;
37223;Laerm;28026;48.562;14.440;2023-04-03T05:36:25;38.97;35.04;45.07;;
37223;Laerm;28026;48.562;14.440;2023-04-03T05:38:56;39.80;35.66;53.04;;
37223;Laerm;28026;48.562;14.440;2023-04-03T05:41:28;39.53;34.69;51.55;;
37223;Laerm;28026;48.562;14.440;2023-04-03T05:43:58;40.65;34.69;50.32;;
37223;Laerm;28026;48.562;14.440;2023-04-03T05:46:29;40.42;35.94;54.77;;
37223;Laerm;28026;48.562;14.440;2023-04-03T05:49:01;39.55;34.69;49.74;;
37223;Laerm;28026;48.562;14.440;2023-04-03T05:51:39;42.17;36.91;50.07;;
37223;Laerm;28026;48.562;14.440;2023-04-03T05:54:24;42.15;35.66;55.58;;
37223;Laerm;28026;48.562;14.440;2023-04-03T05:56:55;39.19;35.66;47.74;;
37223;Laerm;28026;48.562;14.440;2023-04-03T05:59:26;40.23;35.66;48.74;;
37223;Laerm;28026;48.562;14.440;2023-04-03T06:01:57;40.79;36.20;52.17;;
37223;Laerm;28026;48.562;14.440;2023-04-03T06:04:28;43.11;35.94;62.93;;
37223;Laerm;28026;48.562;14.440;2023-04-03T06:06:59;42.34;35.36;59.63;;
37223;Laerm;28026;48.562;14.440;2023-04-03T06:09:30;40.82;34.69;52.36;;
37223;Laerm;28026;48.562;14.440;2023-04-03T06:12:01;45.20;37.70;58.04;;
37223;Laerm;28026;48.562;14.440;2023-04-03T06:14:32;40.60;36.10;45.33;;
37223;Laerm;28026;48.562;14.440;2023-04-03T06:17:03;38.60;33.90;46.48;;
37223;Laerm;28026;48.562;14.440;2023-04-03T06:19:35;40.55;36.69;52.06;;
37223;Laerm;28026;48.562;14.440;2023-04-03T06:22:06;40.78;36.20;53.57;;
37223;Laerm;28026;48.562;14.440;2023-04-03T06:24:38;39.66;35.94;45.89;;
37223;Laerm;28026;48.562;14.440;2023-04-03T06:27:10;39.83;35.94;51.22;;
37223;Laerm;28026;48.562;14.440;2023-04-03T06:29:41;40.82;35.66;60.27;;
37223;Laerm;28026;48.562;14.440;2023-04-03T06:32:12;40.93;35.66;51.94;;
37223;Laerm;28026;48.562;14.440;2023-04-03T06:34:43;40.69;34.31;58.59;;
37223;Laerm;28026;48.562;14.440;2023-04-03T06:37:20;40.56;35.94;54.77;;
37223;Laerm;28026;48.562;14.440;2023-04-03T06:39:52;40.55;35.94;54.01;;
37223;Laerm;28026;48.562;14.440;2023-04-03T06:42:23;42.17;36.10;66.84;;
37223;Laerm;28026;48.562;14.440;2023-04-03T06:44:54;40.98;35.66;58.63;;
37223;Laerm;28026;48.562;14.440;2023-04-03T06:47:26;40.12;34.69;59.91;;
37223;Laerm;28026;48.562;14.440;2023-04-03T06:49:56;40.34;35.36;57.27;;
37223;Laerm;28026;48.562;14.440;2023-04-03T06:52:28;41.46;35.36;49.60;;
37223;Laerm;28026;48.562;14.440;2023-04-03T06:54:59;39.93;33.90;54.33;;
37223;Laerm;28026;48.562;14.440;2023-04-03T06:57:30;38.73;34.69;48.25;;
37223;Laerm;28026;48.562;14.440;2023-04-03T07:00:03;39.69;35.04;53.83;;
37223;Laerm;28026;48.562;14.440;2023-04-03T07:02:34;39.19;34.69;45.33;;
37223;Laerm;28026;48.562;14.440;2023-04-03T07:05:06;39.00;35.36;48.52;;
37223;Laerm;28026;48.562;14.440;2023-04-03T07:07:37;38.84;35.31;47.88;;
37223;Laerm;28026;48.562;14.440;2023-04-03T07:10:09;39.14;35.36;44.97;;
37223;Laerm;28026;48.562;14.440;2023-04-03T07:12:40;39.96;34.69;58.60;;
37223;Laerm;28026;48.562;14.440;2023-04-03T07:15:12;40.29;35.66;45.39;;
37223;Laerm;28026;48.562;14.440;2023-04-03T07:17:43;39.38;34.31;53.35;;
37223;Laerm;28026;48.562;14.440;2023-04-03T07:20:14;39.36;33.44;52.57;;
37223;Laerm;28026;48.562;14.440;2023-04-03T07:22:45;40.49;35.36;56.34;;
37223;Laerm;28026;48.562;14.440;2023-04-03T07:25:16;40.60;34.31;59.67;;
37223;Laerm;28026;48.562;14.440;2023-04-03T07:27:48;42.24;34.69;53.33;;
37223;Laerm;28026;48.562;14.440;2023-04-03T07:30:20;41.10;35.66;55.72;;
37223;Laerm;28026;48.562;14.440;2023-04-03T07:32:51;40.84;35.36;53.87;;
37223;Laerm;28026;48.562;14.440;2023-04-03T07:35:22;44.66;35.36;73.15;;
37223;Laerm;28026;48.562;14.440;2023-04-03T07:37:53;44.64;34.31;66.15;;
37223;Laerm;28026;48.562;14.440;2023-04-03T07:40:24;41.73;35.36;46.15;;
37223;Laerm;28026;48.562;14.440;2023-04-03T07:42:56;40.61;34.31;57.11;;
37223;Laerm;28026;48.562;14.440;2023-04-03T07:45:27;41.79;34.31;54.20;;
37223;Laerm;28026;48.562;14.440;2023-04-03T07:47:58;41.50;35.04;67.34;;
37223;Laerm;28026;48.562;14.440;2023-04-03T07:50:29;39.04;35.01;54.19;;
37223;Laerm;28026;48.562;14.440;2023-04-03T07:53:03;44.14;34.69;60.68;;
37223;Laerm;28026;48.562;14.440;2023-04-03T07:55:35;42.17;34.69;59.33;;
37223;Laerm;28026;48.562;14.440;2023-04-03T07:58:18;39.90;34.69;55.98;;
37223;Laerm;28026;48.562;14.440;2023-04-03T08:00:49;45.58;35.66;73.28;;
37223;Laerm;28026;48.562;14.440;2023-04-03T08:03:20;40.32;36.69;53.98;;
37223;Laerm;28026;48.562;14.440;2023-04-03T08:05:51;41.59;36.34;60.49;;
37223;Laerm;28026;48.562;14.440;2023-04-03T08:08:24;41.74;34.69;70.83;;
37223;Laerm;28026;48.562;14.440;2023-04-03T08:10:55;41.94;33.90;59.83;;
37223;Laerm;28026;48.562;14.440;2023-04-03T08:13:26;40.08;35.36;58.83;;
37223;Laerm;28026;48.562;14.440;2023-04-03T08:15:57;39.98;34.31;57.35;;
37223;Laerm;28026;48.562;14.440;2023-04-03T08:18:29;40.96;35.04;62.16;;
37223;Laerm;28026;48.562;14.440;2023-04-03T08:21:00;41.15;35.36;50.77;;
37223;Laerm;28026;48.562;14.440;2023-04-03T08:23:31;40.20;34.31;52.90;;
37223;Laerm;28026;48.562;14.440;2023-04-03T08:26:13;42.44;34.31;65.86;;
37223;Laerm;28026;48.562;14.440;2023-04-03T08:28:45;41.87;34.69;58.14;;
37223;Laerm;28026;48.562;14.440;2023-04-03T08:31:19;43.93;37.32;53.53;;
37223;Laerm;28026;48.562;14.440;2023-04-03T08:33:50;42.06;35.66;64.76;;
37223;Laerm;28026;48.562;14.440;2023-04-03T08:36:29;42.46;35.94;62.23;;
37223;Laerm;28026;48.562;14.440;2023-04-03T08:39:00;45.03;33.90;74.76;;
37223;Laerm;28026;48.562;14.440;2023-04-03T08:41:44;42.68;34.69;59.18;;
37223;Laerm;28026;48.562;14.440;2023-04-03T08:45:44;41.14;34.31;58.82;;
37223;Laerm;28026;48.562;14.440;2023-04-03T08:48:04;43.19;34.34;70.10;;
37223;Laerm;28026;48.562;14.440;2023-04-03T08:50:51;42.73;35.36;56.85;;
37223;Laerm;28026;48.562;14.440;2023-04-03T08:53:36;45.29;35.66;71.25;;
37223;Laerm;28026;48.562;14.440;2023-04-03T08:56:13;39.97;36.20;50.56;;
37223;Laerm;28026;48.562;14.440;2023-04-03T08:58:53;52.65;36.69;75.96;;
37223;Laerm;28026;48.562;14.440;2023-04-03T09:01:36;49.98;36.91;70.29;;
37223;Laerm;28026;48.562;14.440;2023-04-03T09:04:15;43.97;36.45;70.59;;
37223;Laerm;28026;48.562;14.440;2023-04-03T09:06:58;42.77;35.94;54.73;;
37223;Laerm;28026;48.562;14.440;2023-04-03T09:09:39;45.17;36.45;58.94;;
37223;Laerm;28026;48.562;14.440;2023-04-03T09:13:00;44.42;35.04;65.96;;
37223;Laerm;28026;48.562;14.440;2023-04-03T09:15:25;42.23;36.20;58.99;;
37223;Laerm;28026;48.562;14.440;2023-04-03T09:18:32;45.30;36.20;64.62;;
37223;Laerm;28026;48.562;14.440;2023-04-03T09:21:38;48.91;37.12;77.09;;
37223;Laerm;28026;48.562;14.440;2023-04-03T09:24:16;51.25;36.20;71.23;;
37223;Laerm;28026;48.562;14.440;2023-04-03T09:27:06;45.82;36.91;71.65;;
37223;Laerm;28026;48.562;14.440;2023-04-03T09:29:43;44.18;35.66;61.18;;
37223;Laerm;28026;48.562;14.440;2023-04-03T09:32:34;49.00;37.12;69.03;;
37223;Laerm;28026;48.562;14.440;2023-04-03T09:35:28;51.44;39.46;61.66;;
37223;Laerm;28026;48.562;14.440;2023-04-03T09:41:02;52.65;39.08;64.05;;
37223;Laerm;28026;48.562;14.440;2023-04-03T09:43:38;52.56;41.06;73.83;;
37223;Laerm;28026;48.562;14.440;2023-04-03T09:46:33;51.91;39.70;60.88;;
37223;Laerm;28026;48.562;14.440;2023-04-03T09:49:10;52.31;39.92;67.48;;
37223;Laerm;28026;48.562;14.440;2023-04-03T09:51:42;52.62;38.52;70.34;;
37223;Laerm;28026;48.562;14.440;2023-04-03T09:54:37;52.99;40.33;73.69;;
37223;Laerm;28026;48.562;14.440;2023-04-03T09:57:13;54.38;38.52;83.64;;
37223;Laerm;28026;48.562;14.440;2023-04-03T10:00:01;51.49;40.43;62.12;;
37223;Laerm;28026;48.562;14.440;2023-04-03T10:02:40;51.15;39.08;61.27;;
37223;Laerm;28026;48.562;14.440;2023-04-03T10:05:35;52.25;38.81;75.39;;
37223;Laerm;28026;48.562;14.440;2023-04-03T10:11:14;51.40;39.58;61.29;;
37223;Laerm;28026;48.562;14.440;2023-04-03T10:14:00;50.97;39.57;65.24;;
37223;Laerm;28026;48.562;14.440;2023-04-03T10:16:41;53.53;39.70;80.77;;
37223;Laerm;28026;48.562;14.440;2023-04-03T10:19:42;49.71;38.67;70.08;;
37223;Laerm;28026;48.562;14.440;2023-04-03T10:22:36;50.37;36.69;60.03;;
37223;Laerm;28026;48.562;14.440;2023-04-03T10:29:18;49.60;38.37;65.16;;
37223;Laerm;28026;48.562;14.440;2023-04-03T10:35:44;49.57;38.21;67.03;;
37223;Laerm;28026;48.562;14.440;2023-04-03T10:51:36;49.46;42.53;61.67;;
37223;Laerm;28026;48.562;14.440;2023-04-03T10:54:28;47.10;40.33;60.92;;
37223;Laerm;28026;48.562;14.440;2023-04-03T10:57:10;43.80;38.81;58.10;;
37223;Laerm;28026;48.562;14.440;2023-04-03T10:59:48;46.19;38.52;63.88;;
37223;Laerm;28026;48.562;14.440;2023-04-03T11:02:41;43.65;37.70;55.25;;
37223;Laerm;28026;48.562;14.440;2023-04-03T11:05:47;47.36;39.58;60.41;;
37223;Laerm;28026;48.562;14.440;2023-04-03T11:08:44;46.95;37.88;72.11;;
37223;Laerm;28026;48.562;14.440;2023-04-03T11:11:24;46.57;39.34;73.55;;
37223;Laerm;28026;48.562;14.440;2023-04-03T11:14:28;44.37;38.21;57.04;;
37223;Laerm;28026;48.562;14.440;2023-04-03T11:17:21;43.54;38.67;54.78;;
37223;Laerm;28026;48.562;14.440;2023-04-03T11:20:18;43.35;38.02;59.38;;
37223;Laerm;28026;48.562;14.440;2023-04-03T11:23:06;43.98;40.23;59.78;;
37223;Laerm;28026;48.562;14.440;2023-04-03T11:25:43;49.03;39.81;64.80;;
37223;Laerm;28026;48.562;14.440;2023-04-03T11:28:15;43.91;38.81;57.62;;
37223;Laerm;28026;48.562;14.440;2023-04-03T11:34:19;47.01;38.05;71.74;;
37223;Laerm;28026;48.562;14.440;2023-04-03T11:36:58;46.78;37.88;61.89;;
37223;Laerm;28026;48.562;14.440;2023-04-03T11:39:39;44.94;37.70;68.42;;
37223;Laerm;28026;48.562;14.440;2023-04-03T11:42:36;43.56;38.52;59.96;;
37223;Laerm;28026;48.562;14.440;2023-04-03T11:50:48;49.95;39.34;63.86;;
37223;Laerm;28026;48.562;14.440;2023-04-03T11:53:37;43.68;37.88;56.62;;
37223;Laerm;28026;48.562;14.440;2023-04-03T12:01:56;43.33;35.66;63.56;;
37223;Laerm;28026;48.562;14.440;2023-04-03T12:04:31;41.92;35.66;62.13;;
37223;Laerm;28026;48.562;14.440;2023-04-03T12:07:18;43.84;35.94;65.92;;
37223;Laerm;28026;48.562;14.440;2023-04-03T12:12:39;49.03;39.35;68.70;;
37223;Laerm;28026;48.562;14.440;2023-04-03T12:15:53;47.87;36.69;71.84;;
37223;Laerm;28026;48.562;14.440;2023-04-03T12:18:55;41.04;35.36;63.96;;
37223;Laerm;28026;48.562;14.440;2023-04-03T12:24:35;40.53;35.36;62.36;;
37223;Laerm;28026;48.562;14.440;2023-04-03T12:27:33;40.09;35.04;60.69;;
37223;Laerm;28026;48.562;14.440;2023-04-03T12:30:13;45.74;35.36;59.99;;
37223;Laerm;28026;48.562;14.440;2023-04-03T12:32:55;42.23;36.20;53.15;;
37223;Laerm;28026;48.562;14.440;2023-04-03T12:35:43;49.83;38.67;66.30;;
37223;Laerm;28026;48.562;14.440;2023-04-03T12:47:37;49.27;38.37;73.47;;
37223;Laerm;28026;48.562;14.440;2023-04-03T12:50:30;42.28;35.36;64.83;;
37223;Laerm;28026;48.562;14.440;2023-04-03T12:53:16;39.78;33.90;58.06;;
37223;Laerm;28026;48.562;14.440;2023-04-03T12:56:18;42.56;35.36;59.97;;
37223;Laerm;28026;48.562;14.440;2023-04-03T12:58:53;44.56;34.69;69.57;;
37223;Laerm;28026;48.562;14.440;2023-04-03T13:01:26;50.33;35.04;77.39;;
37223;Laerm;28026;48.562;14.440;2023-04-03T13:03:58;40.75;33.44;62.80;;
37223;Laerm;28026;48.562;14.440;2023-04-03T13:06:40;47.14;36.91;69.93;;
37223;Laerm;28026;48.562;14.440;2023-04-03T13:09:28;44.71;35.66;75.44;;
37223;Laerm;28026;48.562;14.440;2023-04-03T13:12:15;47.35;36.20;72.77;;
37223;Laerm;28026;48.562;14.440;2023-04-03T13:15:29;43.82;35.66;66.18;;
37223;Laerm;28026;48.562;14.440;2023-04-03T13:18:00;47.12;36.45;74.96;;
37223;Laerm;28026;48.562;14.440;2023-04-03T13:20:35;49.07;35.36;80.79;;
37223;Laerm;28026;48.562;14.440;2023-04-03T13:23:13;41.78;35.04;62.98;;
37223;Laerm;28026;48.562;14.440;2023-04-03T13:25:49;44.08;36.69;63.59;;
37223;Laerm;28026;48.562;14.440;2023-04-03T13:28:25;40.96;36.69;50.56;;
37223;Laerm;28026;48.562;14.440;2023-04-03T13:33:36;42.28;37.32;51.31;;
37223;Laerm;28026;48.562;14.440;2023-04-03T13:36:21;42.31;36.20;62.88;;
37223;Laerm;28026;48.562;14.440;2023-04-03T13:41:49;39.38;35.04;58.30;;
37223;Laerm;28026;48.562;14.440;2023-04-03T13:44:28;44.05;34.69;58.62;;
37223;Laerm;28026;48.562;14.440;2023-04-03T13:47:23;46.52;37.32;60.34;;
37223;Laerm;28026;48.562;14.440;2023-04-03T13:50:16;44.36;36.20;71.28;;
37223;Laerm;28026;48.562;14.440;2023-04-03T13:53:13;45.20;37.70;63.67;;
37223;Laerm;28026;48.562;14.440;2023-04-03T13:56:26;42.30;35.94;62.78;;
37223;Laerm;28026;48.562;14.440;2023-04-03T14:02:08;45.66;36.91;67.36;;
37223;Laerm;28026;48.562;14.440;2023-04-03T14:07:17;42.31;34.69;61.37;;
37223;Laerm;28026;48.562;14.440;2023-04-03T14:09:49;48.93;35.36;63.58;;
37223;Laerm;28026;48.562;14.440;2023-04-03T14:12:35;41.93;33.44;61.69;;
37223;Laerm;28026;48.562;14.440;2023-04-03T14:15:23;38.61;33.44;52.28;;
37223;Laerm;28026;48.562;14.440;2023-04-03T14:17:55;40.09;33.90;60.52;;
37223;Laerm;28026;48.562;14.440;2023-04-03T14:20:27;41.20;34.31;54.89;;
37223;Laerm;28026;48.562;14.440;2023-04-03T14:22:58;47.51;37.52;68.68;;
37223;Laerm;28026;48.562;14.440;2023-04-03T14:25:29;46.15;37.12;70.33;;
37223;Laerm;28026;48.562;14.440;2023-04-03T14:28:01;48.51;36.20;73.00;;
37223;Laerm;28026;48.562;14.440;2023-04-03T14:30:43;45.83;35.94;60.94;;
37223;Laerm;28026;48.562;14.440;2023-04-03T14:33:20;43.24;36.20;71.57;;
37223;Laerm;28026;48.562;14.440;2023-04-03T14:35:52;44.50;34.69;59.34;;
37223;Laerm;28026;48.562;14.440;2023-04-03T14:38:27;43.60;33.90;54.61;;
37223;Laerm;28026;48.562;14.440;2023-04-03T14:40:59;41.46;35.36;55.69;;
37223;Laerm;28026;48.562;14.440;2023-04-03T14:43:30;47.33;35.36;69.17;;
37223;Laerm;28026;48.562;14.440;2023-04-03T14:46:01;44.01;35.36;69.70;;
37223;Laerm;28026;48.562;14.440;2023-04-03T14:48:32;41.87;34.69;53.29;;
37223;Laerm;28026;48.562;14.440;2023-04-03T14:51:03;41.53;35.94;45.63;;
37223;Laerm;28026;48.562;14.440;2023-04-03T14:53:34;48.38;33.44;67.65;;
37223;Laerm;28026;48.562;14.440;2023-04-03T14:56:23;45.90;35.66;71.09;;
37223;Laerm;28026;48.562;14.440;2023-04-03T14:59:01;42.24;35.04;52.69;;
37223;Laerm;28026;48.562;14.440;2023-04-03T15:01:32;41.81;35.36;59.55;;
37223;Laerm;28026;48.562;14.440;2023-04-03T15:04:17;41.10;33.97;67.86;;
37223;Laerm;28026;48.562;14.440;2023-04-03T15:06:50;46.82;37.88;61.90;;
37223;Laerm;28026;48.562;14.440;2023-04-03T15:09:27;42.39;35.66;53.78;;
37223;Laerm;28026;48.562;14.440;2023-04-03T15:11:58;41.51;35.04;51.22;;
37223;Laerm;28026;48.562;14.440;2023-04-03T15:14:29;47.05;35.04;60.55;;
37223;Laerm;28026;48.562;14.440;2023-04-03T15:17:00;43.11;35.36;56.27;;
37223;Laerm;28026;48.562;14.440;2023-04-03T15:19:38;47.08;35.36;59.86;;
37223;Laerm;28026;48.562;14.440;2023-04-03T15:22:17;44.55;34.69;62.63;;
37223;Laerm;28026;48.562;14.440;2023-04-03T15:24:48;38.52;32.93;49.38;;
37223;Laerm;28026;48.562;14.440;2023-04-03T15:27:19;43.07;33.44;62.58;;
37223;Laerm;28026;48.562;14.440;2023-04-03T15:29:50;48.14;34.31;64.68;;
37223;Laerm;28026;48.562;14.440;2023-04-03T15:32:21;41.36;32.93;54.59;;
37223;Laerm;28026;48.562;14.440;2023-04-03T15:34:54;41.59;35.66;50.22;;
37223;Laerm;28026;48.562;14.440;2023-04-03T15:37:25;41.60;35.94;51.46;;